MSC Mara — V7NF9 — position and weather

sailwx.info

Track history (hours):
 
Tides and Currents Weather Stations Pressure Air Temp Water Temp Dewpoint Dewpoint Depression Visibility Wind Speed Wind Dir Waves Ship Positions

MSC Mara

Last reported at 2016-May-28 06:33 UTC. Time now 2016-May-28 08:03 UTC.
Position S 39°05' E 145°52'.

Length 294 m; draft 11.3 m.

Type: Ship (hazmat cat C). MMSI: 538002955.

Date/timePositionNaut miles runAvg speedWind from/ knotsBaromVisibWave heightAir tempDewpointWater temp
2016-May-28 06:33S 39°05' E 145°52'1413.6
2016-May-28 05:32S 39°10' E 146°08'1313.0
2016-May-28 04:34S 39°10' E 146°25'1313.4
2016-May-28 03:33S 39°06' E 146°41'1413.9
2016-May-28 02:33S 39°02' E 146°58'1414.2
2016-May-28 01:33S 38°57' E 147°16'8315.1
2016-May-27 20:04S 38°21' E 148°51'816.4
2016-May-27 19:33S 38°16' E 148°60'1616.0
2016-May-27 18:33S 38°07' E 149°16'1616.1
2016-May-27 17:33S 37°57' E 149°33'1615.8
2016-May-27 16:33S 37°48' E 149°49'1616.2
2016-May-27 15:33S 37°39' E 150°06'1616.0
2016-May-27 14:33S 37°25' E 150°16'1616.0
2016-May-27 13:33S 37°11' E 150°24'1615.6
2016-May-27 12:33S 36°56' E 150°32'1615.6
2016-May-27 11:33S 36°42' E 150°39'1515.3
2016-May-27 10:33S 36°28' E 150°47'23116.0
2016-May-26 20:07S 32°55' E 152°37'1117.6
2016-May-26 19:29S 32°45' E 152°43'23716.8
2016-May-26 05:25S 28°58' E 154°03'14017.5
2016-May-25 21:25S 26°39' E 154°06'1818.9
2016-May-25 20:27S 26°20' E 154°06'1718.6
2016-May-25 19:33S 26°04' E 154°05'  
Track history (hours):
 
Tides and Currents Weather Stations Pressure Air Temp Water Temp Dewpoint Dewpoint Depression Visibility Wind Speed Wind Dir Waves Ship Positions

MSC Mara

Last reported at 2016-May-28 06:33 UTC. Time now 2016-May-28 08:03 UTC.
Position S 39°05' E 145°52'.

Length 294 m; draft 11.3 m.

Type: Ship (hazmat cat C). MMSI: 538002955.

Date/timePositionNaut miles runAvg speedWind from/ knotsBaromVisibWave heightAir tempDewpointWater temp
2016-May-28 06:33S 39°05' E 145°52'1413.6
2016-May-28 05:32S 39°10' E 146°08'1313.0
2016-May-28 04:34S 39°10' E 146°25'1313.4
2016-May-28 03:33S 39°06' E 146°41'1413.9
2016-May-28 02:33S 39°02' E 146°58'1414.2
2016-May-28 01:33S 38°57' E 147°16'8315.1
2016-May-27 20:04S 38°21' E 148°51'816.4
2016-May-27 19:33S 38°16' E 148°60'1616.0
2016-May-27 18:33S 38°07' E 149°16'1616.1
2016-May-27 17:33S 37°57' E 149°33'1615.8
2016-May-27 16:33S 37°48' E 149°49'1616.2
2016-May-27 15:33S 37°39' E 150°06'1616.0
2016-May-27 14:33S 37°25' E 150°16'1616.0
2016-May-27 13:33S 37°11' E 150°24'1615.6
2016-May-27 12:33S 36°56' E 150°32'1615.6
2016-May-27 11:33S 36°42' E 150°39'1515.3
2016-May-27 10:33S 36°28' E 150°47'23116.0
2016-May-26 20:07S 32°55' E 152°37'1117.6
2016-May-26 19:29S 32°45' E 152°43'23716.8
2016-May-26 05:25S 28°58' E 154°03'14017.5
2016-May-25 21:25S 26°39' E 154°06'1818.9
2016-May-25 20:27S 26°20' E 154°06'1718.6
2016-May-25 19:33S 26°04' E 154°05'  

Dump ship's entire track history